sensor_id;sensor_type;location;lat;lon;timestamp;P1;durP1;ratioP1;P2;durP2;ratioP2
7647;SDS011;3866;48.020;11.720;2023-04-24T00:00:53;0.93;;;0.70;;
7647;SDS011;3866;48.020;11.720;2023-04-24T00:03:21;1.97;;;0.80;;
7647;SDS011;3866;48.020;11.720;2023-04-24T00:05:48;1.37;;;0.50;;
7647;SDS011;3866;48.020;11.720;2023-04-24T00:08:17;0.50;;;0.50;;
7647;SDS011;3866;48.020;11.720;2023-04-24T00:10:44;0.53;;;0.53;;
7647;SDS011;3866;48.020;11.720;2023-04-24T00:13:11;1.33;;;0.80;;
7647;SDS011;3866;48.020;11.720;2023-04-24T00:15:38;1.87;;;0.63;;
7647;SDS011;3866;48.020;11.720;2023-04-24T00:18:05;0.93;;;0.90;;
7647;SDS011;3866;48.020;11.720;2023-04-24T00:20:32;1.80;;;0.70;;
7647;SDS011;3866;48.020;11.720;2023-04-24T00:23:00;0.57;;;0.50;;
7647;SDS011;3866;48.020;11.720;2023-04-24T00:25:28;0.40;;;0.40;;
7647;SDS011;3866;48.020;11.720;2023-04-24T00:27:55;1.30;;;0.90;;
7647;SDS011;3866;48.020;11.720;2023-04-24T00:30:22;0.77;;;0.40;;
7647;SDS011;3866;48.020;11.720;2023-04-24T00:32:49;2.13;;;0.37;;
7647;SDS011;3866;48.020;11.720;2023-04-24T00:35:16;0.40;;;0.40;;
7647;SDS011;3866;48.020;11.720;2023-04-24T00:37:44;0.60;;;0.60;;
7647;SDS011;3866;48.020;11.720;2023-04-24T00:40:11;0.53;;;0.53;;
7647;SDS011;3866;48.020;11.720;2023-04-24T00:42:40;0.40;;;0.40;;
7647;SDS011;3866;48.020;11.720;2023-04-24T00:45:08;0.60;;;0.60;;
7647;SDS011;3866;48.020;11.720;2023-04-24T00:47:35;0.63;;;0.40;;
7647;SDS011;3866;48.020;11.720;2023-04-24T00:50:03;0.80;;;0.30;;
7647;SDS011;3866;48.020;11.720;2023-04-24T00:52:31;0.60;;;0.57;;
7647;SDS011;3866;48.020;11.720;2023-04-24T00:54:58;1.30;;;0.33;;
7647;SDS011;3866;48.020;11.720;2023-04-24T00:57:25;0.90;;;0.50;;
7647;SDS011;3866;48.020;11.720;2023-04-24T00:59:54;1.03;;;0.27;;
7647;SDS011;3866;48.020;11.720;2023-04-24T01:02:21;0.30;;;0.30;;
7647;SDS011;3866;48.020;11.720;2023-04-24T01:04:51;1.07;;;0.60;;
7647;SDS011;3866;48.020;11.720;2023-04-24T01:07:18;0.90;;;0.33;;
7647;SDS011;3866;48.020;11.720;2023-04-24T01:09:46;0.60;;;0.40;;
7647;SDS011;3866;48.020;11.720;2023-04-24T01:12:16;1.23;;;0.40;;
7647;SDS011;3866;48.020;11.720;2023-04-24T01:14:43;0.93;;;0.40;;
7647;SDS011;3866;48.020;11.720;2023-04-24T01:17:12;0.30;;;0.20;;
7647;SDS011;3866;48.020;11.720;2023-04-24T01:19:40;0.20;;;0.20;;
7647;SDS011;3866;48.020;11.720;2023-04-24T01:22:11;0.30;;;0.20;;
7647;SDS011;3866;48.020;11.720;2023-04-24T01:24:39;1.03;;;0.40;;
7647;SDS011;3866;48.020;11.720;2023-04-24T01:27:07;0.23;;;0.23;;
7647;SDS011;3866;48.020;11.720;2023-04-24T01:29:34;1.07;;;0.20;;
7647;SDS011;3866;48.020;11.720;2023-04-24T01:32:01;0.60;;;0.30;;
7647;SDS011;3866;48.020;11.720;2023-04-24T01:34:29;0.83;;;0.20;;
7647;SDS011;3866;48.020;11.720;2023-04-24T01:36:56;0.30;;;0.30;;
7647;SDS011;3866;48.020;11.720;2023-04-24T01:39:24;0.40;;;0.40;;
7647;SDS011;3866;48.020;11.720;2023-04-24T01:41:53;2.30;;;0.20;;
7647;SDS011;3866;48.020;11.720;2023-04-24T01:44:20;0.17;;;0.17;;
7647;SDS011;3866;48.020;11.720;2023-04-24T01:46:47;0.10;;;0.10;;
7647;SDS011;3866;48.020;11.720;2023-04-24T01:49:14;0.20;;;0.20;;
7647;SDS011;3866;48.020;11.720;2023-04-24T01:51:41;0.27;;;0.20;;
7647;SDS011;3866;48.020;11.720;2023-04-24T01:54:08;0.50;;;0.30;;
7647;SDS011;3866;48.020;11.720;2023-04-24T01:56:36;0.20;;;0.20;;
7647;SDS011;3866;48.020;11.720;2023-04-24T01:59:07;0.20;;;0.20;;
7647;SDS011;3866;48.020;11.720;2023-04-24T02:01:36;0.40;;;0.40;;
7647;SDS011;3866;48.020;11.720;2023-04-24T02:04:03;0.73;;;0.20;;
7647;SDS011;3866;48.020;11.720;2023-04-24T02:06:31;0.30;;;0.30;;
7647;SDS011;3866;48.020;11.720;2023-04-24T02:08:57;0.20;;;0.20;;
7647;SDS011;3866;48.020;11.720;2023-04-24T02:11:24;0.20;;;0.20;;
7647;SDS011;3866;48.020;11.720;2023-04-24T02:13:53;0.37;;;0.20;;
7647;SDS011;3866;48.020;11.720;2023-04-24T02:16:20;1.43;;;0.33;;
7647;SDS011;3866;48.020;11.720;2023-04-24T02:18:47;0.20;;;0.20;;
7647;SDS011;3866;48.020;11.720;2023-04-24T02:21:13;0.20;;;0.20;;
7647;SDS011;3866;48.020;11.720;2023-04-24T02:23:40;1.07;;;0.23;;
7647;SDS011;3866;48.020;11.720;2023-04-24T02:26:07;0.10;;;0.10;;
7647;SDS011;3866;48.020;11.720;2023-04-24T02:28:34;0.33;;;0.20;;
7647;SDS011;3866;48.020;11.720;2023-04-24T02:31:02;0.33;;;0.20;;
7647;SDS011;3866;48.020;11.720;2023-04-24T02:33:30;1.00;;;0.43;;
7647;SDS011;3866;48.020;11.720;2023-04-24T02:35:57;0.47;;;0.17;;
7647;SDS011;3866;48.020;11.720;2023-04-24T02:38:24;0.63;;;0.20;;
7647;SDS011;3866;48.020;11.720;2023-04-24T02:40:51;0.20;;;0.13;;
7647;SDS011;3866;48.020;11.720;2023-04-24T02:43:18;0.40;;;0.17;;
7647;SDS011;3866;48.020;11.720;2023-04-24T02:45:45;0.10;;;0.10;;
7647;SDS011;3866;48.020;11.720;2023-04-24T02:48:13;0.47;;;0.20;;
7647;SDS011;3866;48.020;11.720;2023-04-24T02:50:40;1.43;;;0.27;;
7647;SDS011;3866;48.020;11.720;2023-04-24T02:53:07;0.20;;;0.20;;
7647;SDS011;3866;48.020;11.720;2023-04-24T02:55:35;0.40;;;0.27;;
7647;SDS011;3866;48.020;11.720;2023-04-24T02:58:02;0.30;;;0.30;;
7647;SDS011;3866;48.020;11.720;2023-04-24T03:00:29;0.30;;;0.30;;
7647;SDS011;3866;48.020;11.720;2023-04-24T03:02:56;0.20;;;0.20;;
7647;SDS011;3866;48.020;11.720;2023-04-24T03:05:24;0.27;;;0.27;;
7647;SDS011;3866;48.020;11.720;2023-04-24T03:07:52;0.30;;;0.30;;
7647;SDS011;3866;48.020;11.720;2023-04-24T03:10:19;0.30;;;0.30;;
7647;SDS011;3866;48.020;11.720;2023-04-24T03:12:47;0.20;;;0.20;;
7647;SDS011;3866;48.020;11.720;2023-04-24T03:15:14;0.37;;;0.37;;
7647;SDS011;3866;48.020;11.720;2023-04-24T03:17:41;0.30;;;0.30;;
7647;SDS011;3866;48.020;11.720;2023-04-24T03:20:08;1.07;;;0.30;;
7647;SDS011;3866;48.020;11.720;2023-04-24T03:22:37;0.30;;;0.30;;
7647;SDS011;3866;48.020;11.720;2023-04-24T03:25:04;1.00;;;0.23;;
7647;SDS011;3866;48.020;11.720;2023-04-24T03:27:33;0.30;;;0.30;;
7647;SDS011;3866;48.020;11.720;2023-04-24T03:30:00;1.70;;;0.40;;
7647;SDS011;3866;48.020;11.720;2023-04-24T03:32:27;0.20;;;0.20;;
7647;SDS011;3866;48.020;11.720;2023-04-24T03:34:54;1.03;;;0.30;;
7647;SDS011;3866;48.020;11.720;2023-04-24T03:37:20;0.50;;;0.50;;
7647;SDS011;3866;48.020;11.720;2023-04-24T03:39:49;0.20;;;0.20;;
7647;SDS011;3866;48.020;11.720;2023-04-24T03:42:16;0.50;;;0.50;;
7647;SDS011;3866;48.020;11.720;2023-04-24T03:44:42;0.97;;;0.50;;
7647;SDS011;3866;48.020;11.720;2023-04-24T03:47:09;1.20;;;0.33;;
7647;SDS011;3866;48.020;11.720;2023-04-24T03:49:36;1.90;;;0.43;;
7647;SDS011;3866;48.020;11.720;2023-04-24T03:52:03;0.67;;;0.43;;
7647;SDS011;3866;48.020;11.720;2023-04-24T03:54:30;0.40;;;0.37;;
7647;SDS011;3866;48.020;11.720;2023-04-24T03:56:58;0.27;;;0.20;;
7647;SDS011;3866;48.020;11.720;2023-04-24T03:59:26;0.47;;;0.37;;
7647;SDS011;3866;48.020;11.720;2023-04-24T04:01:53;0.50;;;0.37;;
7647;SDS011;3866;48.020;11.720;2023-04-24T04:04:20;0.40;;;0.40;;
7647;SDS011;3866;48.020;11.720;2023-04-24T04:06:47;0.80;;;0.40;;
7647;SDS011;3866;48.020;11.720;2023-04-24T04:09:14;0.67;;;0.23;;
7647;SDS011;3866;48.020;11.720;2023-04-24T04:11:43;2.07;;;0.40;;
7647;SDS011;3866;48.020;11.720;2023-04-24T04:14:11;0.40;;;0.30;;
7647;SDS011;3866;48.020;11.720;2023-04-24T04:16:38;0.60;;;0.30;;
7647;SDS011;3866;48.020;11.720;2023-04-24T04:19:05;1.17;;;0.60;;
7647;SDS011;3866;48.020;11.720;2023-04-24T04:21:32;2.83;;;0.50;;
7647;SDS011;3866;48.020;11.720;2023-04-24T04:23:59;0.47;;;0.47;;
7647;SDS011;3866;48.020;11.720;2023-04-24T04:26:26;0.37;;;0.37;;
7647;SDS011;3866;48.020;11.720;2023-04-24T04:28:53;0.67;;;0.57;;
7647;SDS011;3866;48.020;11.720;2023-04-24T04:31:21;0.33;;;0.30;;
7647;SDS011;3866;48.020;11.720;2023-04-24T04:33:48;2.03;;;0.80;;
7647;SDS011;3866;48.020;11.720;2023-04-24T04:36:15;0.40;;;0.40;;
7647;SDS011;3866;48.020;11.720;2023-04-24T04:38:42;0.77;;;0.40;;
7647;SDS011;3866;48.020;11.720;2023-04-24T04:41:09;3.47;;;0.47;;
7647;SDS011;3866;48.020;11.720;2023-04-24T04:43:36;0.93;;;0.50;;
7647;SDS011;3866;48.020;11.720;2023-04-24T04:46:05;0.53;;;0.47;;
7647;SDS011;3866;48.020;11.720;2023-04-24T04:48:34;1.20;;;0.80;;
7647;SDS011;3866;48.020;11.720;2023-04-24T04:51:01;1.13;;;0.60;;
7647;SDS011;3866;48.020;11.720;2023-04-24T04:53:28;0.60;;;0.50;;
7647;SDS011;3866;48.020;11.720;2023-04-24T04:55:55;1.37;;;1.00;;
7647;SDS011;3866;48.020;11.720;2023-04-24T04:58:22;2.30;;;1.00;;
7647;SDS011;3866;48.020;11.720;2023-04-24T05:00:49;2.57;;;1.17;;
7647;SDS011;3866;48.020;11.720;2023-04-24T05:03:17;4.07;;;1.60;;
7647;SDS011;3866;48.020;11.720;2023-04-24T05:05:45;2.60;;;1.27;;
7647;SDS011;3866;48.020;11.720;2023-04-24T05:08:12;3.03;;;1.17;;
7647;SDS011;3866;48.020;11.720;2023-04-24T05:10:39;1.07;;;0.63;;
7647;SDS011;3866;48.020;11.720;2023-04-24T05:13:06;2.63;;;0.97;;
7647;SDS011;3866;48.020;11.720;2023-04-24T05:15:33;2.30;;;0.90;;
7647;SDS011;3866;48.020;11.720;2023-04-24T05:18:00;1.53;;;1.10;;
7647;SDS011;3866;48.020;11.720;2023-04-24T05:20:26;2.07;;;1.20;;
7647;SDS011;3866;48.020;11.720;2023-04-24T05:22:55;1.13;;;0.50;;
7647;SDS011;3866;48.020;11.720;2023-04-24T05:25:22;1.73;;;1.53;;
7647;SDS011;3866;48.020;11.720;2023-04-24T05:27:48;0.30;;;0.30;;
7647;SDS011;3866;48.020;11.720;2023-04-24T05:30:15;0.70;;;0.40;;
7647;SDS011;3866;48.020;11.720;2023-04-24T05:32:42;1.10;;;0.40;;
7647;SDS011;3866;48.020;11.720;2023-04-24T05:35:09;1.87;;;1.47;;
7647;SDS011;3866;48.020;11.720;2023-04-24T05:37:36;0.63;;;0.40;;
7647;SDS011;3866;48.020;11.720;2023-04-24T05:40:05;0.20;;;0.20;;
7647;SDS011;3866;48.020;11.720;2023-04-24T05:42:33;0.63;;;0.40;;
7647;SDS011;3866;48.020;11.720;2023-04-24T05:45:00;0.50;;;0.30;;
7647;SDS011;3866;48.020;11.720;2023-04-24T05:47:27;0.60;;;0.30;;
7647;SDS011;3866;48.020;11.720;2023-04-24T05:49:54;0.23;;;0.23;;
7647;SDS011;3866;48.020;11.720;2023-04-24T05:52:21;1.40;;;0.30;;
7647;SDS011;3866;48.020;11.720;2023-04-24T05:54:48;0.37;;;0.30;;
7647;SDS011;3866;48.020;11.720;2023-04-24T05:57:16;0.57;;;0.23;;
7647;SDS011;3866;48.020;11.720;2023-04-24T05:59:43;1.50;;;0.50;;
7647;SDS011;3866;48.020;11.720;2023-04-24T06:02:10;0.40;;;0.30;;
7647;SDS011;3866;48.020;11.720;2023-04-24T06:04:37;0.30;;;0.10;;
7647;SDS011;3866;48.020;11.720;2023-04-24T06:07:04;0.20;;;0.20;;
7647;SDS011;3866;48.020;11.720;2023-04-24T06:09:31;0.20;;;0.20;;
7647;SDS011;3866;48.020;11.720;2023-04-24T06:11:58;0.20;;;0.20;;
7647;SDS011;3866;48.020;11.720;2023-04-24T06:14:27;0.30;;;0.20;;
7647;SDS011;3866;48.020;11.720;2023-04-24T06:16:54;0.73;;;0.27;;
7647;SDS011;3866;48.020;11.720;2023-04-24T06:19:20;0.93;;;0.30;;
7647;SDS011;3866;48.020;11.720;2023-04-24T06:21:47;0.20;;;0.20;;
7647;SDS011;3866;48.020;11.720;2023-04-24T06:24:14;1.10;;;0.23;;
7647;SDS011;3866;48.020;11.720;2023-04-24T06:26:41;2.13;;;0.20;;
7647;SDS011;3866;48.020;11.720;2023-04-24T06:29:08;0.10;;;0.10;;
7647;SDS011;3866;48.020;11.720;2023-04-24T06:31:36;0.23;;;0.17;;
7647;SDS011;3866;48.020;11.720;2023-04-24T06:34:03;0.10;;;0.10;;
7647;SDS011;3866;48.020;11.720;2023-04-24T06:36:30;0.10;;;0.10;;
7647;SDS011;3866;48.020;11.720;2023-04-24T06:38:59;0.30;;;0.20;;
7647;SDS011;3866;48.020;11.720;2023-04-24T06:41:26;0.20;;;0.20;;
7647;SDS011;3866;48.020;11.720;2023-04-24T06:43:53;0.20;;;0.20;;
7647;SDS011;3866;48.020;11.720;2023-04-24T06:46:21;0.57;;;0.30;;
7647;SDS011;3866;48.020;11.720;2023-04-24T06:48:50;1.80;;;0.30;;
7647;SDS011;3866;48.020;11.720;2023-04-24T06:51:17;0.10;;;0.10;;
7647;SDS011;3866;48.020;11.720;2023-04-24T06:53:44;0.40;;;0.20;;
7647;SDS011;3866;48.020;11.720;2023-04-24T06:56:11;0.40;;;0.20;;
7647;SDS011;3866;48.020;11.720;2023-04-24T06:58:38;0.23;;;0.10;;
7647;SDS011;3866;48.020;11.720;2023-04-24T07:01:05;0.50;;;0.20;;
7647;SDS011;3866;48.020;11.720;2023-04-24T07:03:32;0.20;;;0.20;;
7647;SDS011;3866;48.020;11.720;2023-04-24T07:06:00;0.17;;;0.10;;
7647;SDS011;3866;48.020;11.720;2023-04-24T07:08:28;0.50;;;0.10;;
7647;SDS011;3866;48.020;11.720;2023-04-24T07:10:56;1.13;;;0.10;;
7647;SDS011;3866;48.020;11.720;2023-04-24T07:13:23;1.90;;;0.20;;
7647;SDS011;3866;48.020;11.720;2023-04-24T07:15:50;0.10;;;0.10;;
7647;SDS011;3866;48.020;11.720;2023-04-24T07:18:18;0.20;;;0.20;;
7647;SDS011;3866;48.020;11.720;2023-04-24T07:20:46;0.10;;;0.10;;
7647;SDS011;3866;48.020;11.720;2023-04-24T07:23:16;0.70;;;0.10;;
7647;SDS011;3866;48.020;11.720;2023-04-24T07:25:43;0.10;;;0.10;;
7647;SDS011;3866;48.020;11.720;2023-04-24T07:28:10;0.30;;;0.10;;
7647;SDS011;3866;48.020;11.720;2023-04-24T07:30:37;0.10;;;0.10;;
7647;SDS011;3866;48.020;11.720;2023-04-24T07:33:03;0.80;;;0.10;;
7647;SDS011;3866;48.020;11.720;2023-04-24T07:35:33;0.33;;;0.10;;
7647;SDS011;3866;48.020;11.720;2023-04-24T07:38:00;0.90;;;0.20;;
7647;SDS011;3866;48.020;11.720;2023-04-24T07:40:28;1.33;;;0.47;;
7647;SDS011;3866;48.020;11.720;2023-04-24T07:42:55;1.17;;;0.20;;
7647;SDS011;3866;48.020;11.720;2023-04-24T07:45:22;0.93;;;0.20;;
7647;SDS011;3866;48.020;11.720;2023-04-24T07:47:51;0.20;;;0.13;;
7647;SDS011;3866;48.020;11.720;2023-04-24T07:50:18;0.30;;;0.30;;
7647;SDS011;3866;48.020;11.720;2023-04-24T07:52:45;1.13;;;0.20;;
7647;SDS011;3866;48.020;11.720;2023-04-24T07:55:12;0.47;;;0.33;;
7647;SDS011;3866;48.020;11.720;2023-04-24T07:57:40;0.93;;;0.30;;
7647;SDS011;3866;48.020;11.720;2023-04-24T08:00:08;0.40;;;0.20;;
7647;SDS011;3866;48.020;11.720;2023-04-24T08:02:35;1.47;;;0.20;;
7647;SDS011;3866;48.020;11.720;2023-04-24T08:05:02;0.30;;;0.30;;
7647;SDS011;3866;48.020;11.720;2023-04-24T08:07:29;0.67;;;0.40;;
7647;SDS011;3866;48.020;11.720;2023-04-24T08:09:56;2.93;;;0.73;;
7647;SDS011;3866;48.020;11.720;2023-04-24T08:12:24;1.27;;;0.20;;
7647;SDS011;3866;48.020;11.720;2023-04-24T08:14:52;1.53;;;0.27;;
7647;SDS011;3866;48.020;11.720;2023-04-24T08:17:19;1.50;;;0.50;;
7647;SDS011;3866;48.020;11.720;2023-04-24T08:19:46;0.50;;;0.50;;
7647;SDS011;3866;48.020;11.720;2023-04-24T08:22:13;1.07;;;0.40;;
7647;SDS011;3866;48.020;11.720;2023-04-24T08:24:40;0.20;;;0.20;;
7647;SDS011;3866;48.020;11.720;2023-04-24T08:27:08;1.80;;;0.37;;
7647;SDS011;3866;48.020;11.720;2023-04-24T08:29:35;0.60;;;0.20;;
7647;SDS011;3866;48.020;11.720;2023-04-24T08:32:03;0.53;;;0.30;;
7647;SDS011;3866;48.020;11.720;2023-04-24T08:34:30;0.47;;;0.20;;
7647;SDS011;3866;48.020;11.720;2023-04-24T08:36:57;0.17;;;0.10;;
7647;SDS011;3866;48.020;11.720;2023-04-24T08:39:24;0.20;;;0.20;;
7647;SDS011;3866;48.020;11.720;2023-04-24T08:41:51;0.20;;;0.10;;
7647;SDS011;3866;48.020;11.720;2023-04-24T08:44:19;1.67;;;0.50;;
7647;SDS011;3866;48.020;11.720;2023-04-24T08:46:46;1.43;;;0.20;;
7647;SDS011;3866;48.020;11.720;2023-04-24T08:49:16;0.27;;;0.20;;
7647;SDS011;3866;48.020;11.720;2023-04-24T08:51:43;0.50;;;0.50;;
7647;SDS011;3866;48.020;11.720;2023-04-24T08:54:12;0.20;;;0.20;;
7647;SDS011;3866;48.020;11.720;2023-04-24T08:56:39;2.03;;;0.20;;
7647;SDS011;3866;48.020;11.720;2023-04-24T08:59:08;0.30;;;0.20;;
7647;SDS011;3866;48.020;11.720;2023-04-24T09:01:36;0.20;;;0.20;;
7647;SDS011;3866;48.020;11.720;2023-04-24T09:04:04;0.43;;;0.40;;
7647;SDS011;3866;48.020;11.720;2023-04-24T09:06:36;0.40;;;0.30;;
7647;SDS011;3866;48.020;11.720;2023-04-24T09:09:03;1.67;;;0.40;;
7647;SDS011;3866;48.020;11.720;2023-04-24T09:11:30;0.77;;;0.47;;
7647;SDS011;3866;48.020;11.720;2023-04-24T09:13:58;1.47;;;0.70;;
7647;SDS011;3866;48.020;11.720;2023-04-24T09:16:26;2.07;;;0.80;;
7647;SDS011;3866;48.020;11.720;2023-04-24T09:18:55;1.53;;;1.00;;
7647;SDS011;3866;48.020;11.720;2023-04-24T09:21:22;0.87;;;0.60;;
7647;SDS011;3866;48.020;11.720;2023-04-24T09:23:58;0.87;;;0.43;;
7647;SDS011;3866;48.020;11.720;2023-04-24T09:26:28;0.60;;;0.40;;
7647;SDS011;3866;48.020;11.720;2023-04-24T09:28:57;1.47;;;0.50;;
7647;SDS011;3866;48.020;11.720;2023-04-24T09:31:26;1.43;;;0.63;;
7647;SDS011;3866;48.020;11.720;2023-04-24T09:33:54;0.67;;;0.60;;
7647;SDS011;3866;48.020;11.720;2023-04-24T09:36:26;2.10;;;1.03;;
7647;SDS011;3866;48.020;11.720;2023-04-24T09:38:58;0.73;;;0.50;;
7647;SDS011;3866;48.020;11.720;2023-04-24T09:41:26;1.03;;;0.40;;
7647;SDS011;3866;48.020;11.720;2023-04-24T09:43:54;1.27;;;0.73;;
7647;SDS011;3866;48.020;11.720;2023-04-24T09:46:28;1.93;;;0.30;;
7647;SDS011;3866;48.020;11.720;2023-04-24T09:48:56;0.57;;;0.57;;
7647;SDS011;3866;48.020;11.720;2023-04-24T09:51:32;0.50;;;0.50;;
7647;SDS011;3866;48.020;11.720;2023-04-24T09:54:02;0.63;;;0.60;;
7647;SDS011;3866;48.020;11.720;2023-04-24T09:56:32;1.90;;;0.30;;
7647;SDS011;3866;48.020;11.720;2023-04-24T09:59:06;0.47;;;0.47;;
7647;SDS011;3866;48.020;11.720;2023-04-24T10:01:33;0.60;;;0.60;;
7647;SDS011;3866;48.020;11.720;2023-04-24T10:04:00;3.10;;;0.80;;
7647;SDS011;3866;48.020;11.720;2023-04-24T10:06:34;0.77;;;0.60;;
7647;SDS011;3866;48.020;11.720;2023-04-24T10:09:02;0.50;;;0.50;;
7647;SDS011;3866;48.020;11.720;2023-04-24T10:11:29;0.60;;;0.60;;
7647;SDS011;3866;48.020;11.720;2023-04-24T10:13:57;2.57;;;0.60;;
7647;SDS011;3866;48.020;11.720;2023-04-24T10:16:24;0.83;;;0.60;;
7647;SDS011;3866;48.020;11.720;2023-04-24T10:18:53;0.60;;;0.60;;
7647;SDS011;3866;48.020;11.720;2023-04-24T10:21:21;0.93;;;0.50;;
7647;SDS011;3866;48.020;11.720;2023-04-24T10:23:48;0.67;;;0.60;;
7647;SDS011;3866;48.020;11.720;2023-04-24T10:26:18;1.37;;;0.70;;
7647;SDS011;3866;48.020;11.720;2023-04-24T10:28:46;1.93;;;0.70;;
7647;SDS011;3866;48.020;11.720;2023-04-24T10:31:14;2.13;;;0.87;;
7647;SDS011;3866;48.020;11.720;2023-04-24T10:33:41;1.47;;;1.10;;
7647;SDS011;3866;48.020;11.720;2023-04-24T10:36:09;0.73;;;0.50;;
7647;SDS011;3866;48.020;11.720;2023-04-24T10:38:38;0.73;;;0.70;;
7647;SDS011;3866;48.020;11.720;2023-04-24T10:41:08;0.73;;;0.60;;
7647;SDS011;3866;48.020;11.720;2023-04-24T10:43:42;0.70;;;0.70;;
7647;SDS011;3866;48.020;11.720;2023-04-24T10:46:09;0.60;;;0.60;;
7647;SDS011;3866;48.020;11.720;2023-04-24T10:48:36;3.40;;;1.53;;
7647;SDS011;3866;48.020;11.720;2023-04-24T10:51:11;0.70;;;0.60;;
7647;SDS011;3866;48.020;11.720;2023-04-24T10:53:39;1.07;;;0.60;;
7647;SDS011;3866;48.020;11.720;2023-04-24T10:56:06;3.30;;;1.77;;
7647;SDS011;3866;48.020;11.720;2023-04-24T10:58:38;1.93;;;0.70;;
7647;SDS011;3866;48.020;11.720;2023-04-24T11:01:11;0.63;;;0.63;;
7647;SDS011;3866;48.020;11.720;2023-04-24T11:03:50;0.87;;;0.60;;
7647;SDS011;3866;48.020;11.720;2023-04-24T11:06:23;6.33;;;3.03;;
7647;SDS011;3866;48.020;11.720;2023-04-24T11:08:58;4.37;;;1.13;;
7647;SDS011;3866;48.020;11.720;2023-04-24T11:11:29;2.17;;;0.93;;
7647;SDS011;3866;48.020;11.720;2023-04-24T11:14:05;3.00;;;2.23;;
7647;SDS011;3866;48.020;11.720;2023-04-24T11:16:35;5.67;;;4.13;;
7647;SDS011;3866;48.020;11.720;2023-04-24T11:19:06;1.37;;;0.80;;
7647;SDS011;3866;48.020;11.720;2023-04-24T11:21:40;0.73;;;0.60;;
7647;SDS011;3866;48.020;11.720;2023-04-24T11:26:56;0.30;;;0.20;;
7647;SDS011;3866;48.020;11.720;2023-04-24T11:29:37;0.50;;;0.50;;
7647;SDS011;3866;48.020;11.720;2023-04-24T11:32:17;2.17;;;1.97;;
7647;SDS011;3866;48.020;11.720;2023-04-24T11:34:46;3.10;;;2.60;;
7647;SDS011;3866;48.020;11.720;2023-04-24T11:37:13;0.60;;;0.50;;
7647;SDS011;3866;48.020;11.720;2023-04-24T11:39:40;2.00;;;1.30;;
7647;SDS011;3866;48.020;11.720;2023-04-24T11:42:07;0.90;;;0.80;;
7647;SDS011;3866;48.020;11.720;2023-04-24T11:44:35;2.93;;;0.90;;
7647;SDS011;3866;48.020;11.720;2023-04-24T11:47:03;1.13;;;0.83;;
7647;SDS011;3866;48.020;11.720;2023-04-24T11:49:32;1.17;;;0.90;;
7647;SDS011;3866;48.020;11.720;2023-04-24T11:51:59;0.93;;;0.70;;
7647;SDS011;3866;48.020;11.720;2023-04-24T11:54:26;0.40;;;0.40;;
7647;SDS011;3866;48.020;11.720;2023-04-24T11:56:53;2.67;;;0.90;;
7647;SDS011;3866;48.020;11.720;2023-04-24T11:59:21;1.23;;;0.80;;
7647;SDS011;3866;48.020;11.720;2023-04-24T12:01:48;1.50;;;1.13;;
7647;SDS011;3866;48.020;11.720;2023-04-24T12:04:16;1.20;;;1.00;;
7647;SDS011;3866;48.020;11.720;2023-04-24T12:07:00;0.47;;;0.47;;
7647;SDS011;3866;48.020;11.720;2023-04-24T12:09:27;0.40;;;0.40;;
7647;SDS011;3866;48.020;11.720;2023-04-24T12:11:56;1.17;;;0.60;;
7647;SDS011;3866;48.020;11.720;2023-04-24T12:14:23;1.13;;;0.50;;
7647;SDS011;3866;48.020;11.720;2023-04-24T12:16:50;0.53;;;0.53;;
7647;SDS011;3866;48.020;11.720;2023-04-24T12:19:18;1.87;;;0.43;;
7647;SDS011;3866;48.020;11.720;2023-04-24T12:21:58;1.83;;;0.70;;
7647;SDS011;3866;48.020;11.720;2023-04-24T12:24:27;1.80;;;1.43;;
7647;SDS011;3866;48.020;11.720;2023-04-24T12:26:55;4.73;;;1.50;;
7647;SDS011;3866;48.020;11.720;2023-04-24T12:29:23;1.40;;;1.10;;
7647;SDS011;3866;48.020;11.720;2023-04-24T12:31:50;3.53;;;1.90;;
7647;SDS011;3866;48.020;11.720;2023-04-24T12:34:18;2.70;;;2.17;;
7647;SDS011;3866;48.020;11.720;2023-04-24T12:36:45;1.20;;;1.10;;
7647;SDS011;3866;48.020;11.720;2023-04-24T12:39:16;2.37;;;1.80;;
7647;SDS011;3866;48.020;11.720;2023-04-24T12:41:50;2.60;;;1.60;;
7647;SDS011;3866;48.020;11.720;2023-04-24T12:44:28;4.47;;;2.77;;
7647;SDS011;3866;48.020;11.720;2023-04-24T12:46:55;3.80;;;2.20;;
7647;SDS011;3866;48.020;11.720;2023-04-24T12:49:22;4.00;;;2.80;;
7647;SDS011;3866;48.020;11.720;2023-04-24T12:51:49;2.87;;;2.67;;
7647;SDS011;3866;48.020;11.720;2023-04-24T12:54:17;4.37;;;2.47;;
7647;SDS011;3866;48.020;11.720;2023-04-24T12:56:44;2.40;;;1.90;;
7647;SDS011;3866;48.020;11.720;2023-04-24T12:59:11;3.03;;;1.63;;
7647;SDS011;3866;48.020;11.720;2023-04-24T13:01:38;2.93;;;1.90;;
7647;SDS011;3866;48.020;11.720;2023-04-24T13:04:05;2.10;;;1.90;;
7647;SDS011;3866;48.020;11.720;2023-04-24T13:06:32;3.90;;;2.30;;
7647;SDS011;3866;48.020;11.720;2023-04-24T13:08:59;2.73;;;2.47;;
7647;SDS011;3866;48.020;11.720;2023-04-24T13:11:27;2.80;;;2.37;;
7647;SDS011;3866;48.020;11.720;2023-04-24T13:13:54;2.80;;;2.60;;
7647;SDS011;3866;48.020;11.720;2023-04-24T13:16:21;2.50;;;1.70;;
7647;SDS011;3866;48.020;11.720;2023-04-24T13:18:48;1.80;;;1.70;;
7647;SDS011;3866;48.020;11.720;2023-04-24T13:21:15;2.37;;;1.67;;
7647;SDS011;3866;48.020;11.720;2023-04-24T13:23:42;3.30;;;1.60;;
7647;SDS011;3866;48.020;11.720;2023-04-24T13:26:08;1.53;;;1.40;;
7647;SDS011;3866;48.020;11.720;2023-04-24T13:28:37;3.50;;;1.43;;
7647;SDS011;3866;48.020;11.720;2023-04-24T13:31:04;4.57;;;1.53;;
7647;SDS011;3866;48.020;11.720;2023-04-24T13:33:31;1.53;;;1.20;;
7647;SDS011;3866;48.020;11.720;2023-04-24T13:35:58;2.13;;;1.30;;
7647;SDS011;3866;48.020;11.720;2023-04-24T13:38:25;1.30;;;1.10;;
7647;SDS011;3866;48.020;11.720;2023-04-24T13:40:52;1.63;;;1.17;;
7647;SDS011;3866;48.020;11.720;2023-04-24T13:43:19;3.00;;;1.30;;
7647;SDS011;3866;48.020;11.720;2023-04-24T13:45:47;3.20;;;1.60;;
7647;SDS011;3866;48.020;11.720;2023-04-24T13:48:14;2.93;;;1.33;;
7647;SDS011;3866;48.020;11.720;2023-04-24T13:50:41;1.47;;;1.23;;
7647;SDS011;3866;48.020;11.720;2023-04-24T13:53:08;2.33;;;1.07;;
7647;SDS011;3866;48.020;11.720;2023-04-24T13:55:35;1.37;;;1.20;;
7647;SDS011;3866;48.020;11.720;2023-04-24T13:58:02;1.40;;;1.00;;
7647;SDS011;3866;48.020;11.720;2023-04-24T14:00:29;1.50;;;1.23;;
7647;SDS011;3866;48.020;11.720;2023-04-24T14:02:58;1.73;;;1.20;;
7647;SDS011;3866;48.020;11.720;2023-04-24T14:05:25;1.30;;;1.20;;
7647;SDS011;3866;48.020;11.720;2023-04-24T14:07:52;2.30;;;1.50;;
7647;SDS011;3866;48.020;11.720;2023-04-24T14:10:19;2.27;;;1.60;;
7647;SDS011;3866;48.020;11.720;2023-04-24T14:12:46;1.30;;;1.20;;
7647;SDS011;3866;48.020;11.720;2023-04-24T14:15:13;1.30;;;1.20;;
7647;SDS011;3866;48.020;11.720;2023-04-24T14:17:40;2.20;;;1.37;;
7647;SDS011;3866;48.020;11.720;2023-04-24T14:20:08;3.33;;;1.30;;
7647;SDS011;3866;48.020;11.720;2023-04-24T14:22:36;2.57;;;1.30;;
7647;SDS011;3866;48.020;11.720;2023-04-24T14:25:03;2.83;;;1.40;;
7647;SDS011;3866;48.020;11.720;2023-04-24T14:27:31;1.90;;;1.70;;
7647;SDS011;3866;48.020;11.720;2023-04-24T14:29:59;1.63;;;1.30;;
7647;SDS011;3866;48.020;11.720;2023-04-24T14:32:26;2.40;;;2.20;;
7647;SDS011;3866;48.020;11.720;2023-04-24T14:34:53;2.23;;;1.50;;
7647;SDS011;3866;48.020;11.720;2023-04-24T14:37:21;3.57;;;1.50;;
7647;SDS011;3866;48.020;11.720;2023-04-24T14:39:48;2.97;;;1.57;;
7647;SDS011;3866;48.020;11.720;2023-04-24T14:42:15;1.83;;;1.57;;
7647;SDS011;3866;48.020;11.720;2023-04-24T14:44:42;1.50;;;1.40;;
7647;SDS011;3866;48.020;11.720;2023-04-24T14:47:09;0.90;;;0.90;;
7647;SDS011;3866;48.020;11.720;2023-04-24T14:49:36;1.40;;;1.17;;
7647;SDS011;3866;48.020;11.720;2023-04-24T14:52:03;1.83;;;1.33;;
7647;SDS011;3866;48.020;11.720;2023-04-24T14:54:32;3.03;;;1.73;;
7647;SDS011;3866;48.020;11.720;2023-04-24T14:56:59;1.83;;;1.07;;
7647;SDS011;3866;48.020;11.720;2023-04-24T14:59:26;0.97;;;0.90;;
7647;SDS011;3866;48.020;11.720;2023-04-24T15:01:53;1.53;;;1.13;;
7647;SDS011;3866;48.020;11.720;2023-04-24T15:04:22;1.10;;;1.00;;
7647;SDS011;3866;48.020;11.720;2023-04-24T15:06:50;2.37;;;0.90;;